sensor_id;sensor_type;location;lat;lon;timestamp;P1;durP1;ratioP1;P2;durP2;ratioP2
61336;SDS011;47212;41.326;2.104;2023-10-08T00:03:55;15.65;;;11.30;;
61336;SDS011;47212;41.326;2.104;2023-10-08T00:09:01;11.85;;;10.63;;
61336;SDS011;47212;41.326;2.104;2023-10-08T00:14:10;12.27;;;10.70;;
61336;SDS011;47212;41.326;2.104;2023-10-08T00:19:13;14.65;;;12.15;;
61336;SDS011;47212;41.326;2.104;2023-10-08T00:24:17;13.80;;;11.82;;
61336;SDS011;47212;41.326;2.104;2023-10-08T00:34:33;14.90;;;11.20;;
61336;SDS011;47212;41.326;2.104;2023-10-08T00:39:38;14.98;;;11.95;;
61336;SDS011;47212;41.326;2.104;2023-10-08T00:44:43;15.68;;;12.55;;
61336;SDS011;47212;41.326;2.104;2023-10-08T00:49:53;14.53;;;11.33;;
61336;SDS011;47212;41.326;2.104;2023-10-08T00:55:06;14.73;;;12.52;;
61336;SDS011;47212;41.326;2.104;2023-10-08T01:05:13;18.00;;;13.40;;
61336;SDS011;47212;41.326;2.104;2023-10-08T01:10:17;16.30;;;13.07;;
61336;SDS011;47212;41.326;2.104;2023-10-08T01:15:22;15.63;;;12.65;;
61336;SDS011;47212;41.326;2.104;2023-10-08T01:20:30;13.00;;;11.40;;
61336;SDS011;47212;41.326;2.104;2023-10-08T01:25:37;18.58;;;12.75;;
61336;SDS011;47212;41.326;2.104;2023-10-08T01:30:40;15.52;;;12.88;;
61336;SDS011;47212;41.326;2.104;2023-10-08T01:35:43;17.20;;;11.65;;
61336;SDS011;47212;41.326;2.104;2023-10-08T01:40:46;13.82;;;10.32;;
61336;SDS011;47212;41.326;2.104;2023-10-08T01:45:52;14.10;;;11.25;;
61336;SDS011;47212;41.326;2.104;2023-10-08T01:50:55;15.25;;;11.45;;
61336;SDS011;47212;41.326;2.104;2023-10-08T01:56:00;15.57;;;11.40;;
61336;SDS011;47212;41.326;2.104;2023-10-08T02:01:04;13.20;;;9.60;;
61336;SDS011;47212;41.326;2.104;2023-10-08T02:06:13;14.70;;;11.38;;
61336;SDS011;47212;41.326;2.104;2023-10-08T02:11:15;12.43;;;10.18;;
61336;SDS011;47212;41.326;2.104;2023-10-08T02:16:19;13.43;;;9.60;;
61336;SDS011;47212;41.326;2.104;2023-10-08T02:21:24;12.68;;;10.23;;
61336;SDS011;47212;41.326;2.104;2023-10-08T02:26:28;16.77;;;11.15;;
61336;SDS011;47212;41.326;2.104;2023-10-08T02:31:31;17.73;;;10.80;;
61336;SDS011;47212;41.326;2.104;2023-10-08T02:36:38;14.65;;;10.40;;
61336;SDS011;47212;41.326;2.104;2023-10-08T02:41:43;13.70;;;10.20;;
61336;SDS011;47212;41.326;2.104;2023-10-08T02:46:49;10.68;;;8.88;;
61336;SDS011;47212;41.326;2.104;2023-10-08T02:51:55;15.40;;;9.90;;
61336;SDS011;47212;41.326;2.104;2023-10-08T02:57:17;10.02;;;7.50;;
61336;SDS011;47212;41.326;2.104;2023-10-08T03:02:19;12.93;;;9.13;;
61336;SDS011;47212;41.326;2.104;2023-10-08T03:07:22;12.27;;;9.40;;
61336;SDS011;47212;41.326;2.104;2023-10-08T03:12:28;12.93;;;9.57;;
61336;SDS011;47212;41.326;2.104;2023-10-08T03:17:33;10.40;;;8.13;;
61336;SDS011;47212;41.326;2.104;2023-10-08T03:22:39;13.45;;;9.02;;
61336;SDS011;47212;41.326;2.104;2023-10-08T03:27:46;13.50;;;9.23;;
61336;SDS011;47212;41.326;2.104;2023-10-08T03:32:50;14.38;;;8.60;;
61336;SDS011;47212;41.326;2.104;2023-10-08T03:38:01;14.65;;;9.38;;
61336;SDS011;47212;41.326;2.104;2023-10-08T03:43:21;10.27;;;8.85;;
61336;SDS011;47212;41.326;2.104;2023-10-08T03:48:35;19.27;;;10.02;;
61336;SDS011;47212;41.326;2.104;2023-10-08T03:53:39;11.25;;;7.93;;
61336;SDS011;47212;41.326;2.104;2023-10-08T03:58:59;10.57;;;8.05;;
61336;SDS011;47212;41.326;2.104;2023-10-08T04:04:17;11.55;;;8.50;;
61336;SDS011;47212;41.326;2.104;2023-10-08T04:09:19;11.65;;;8.27;;
61336;SDS011;47212;41.326;2.104;2023-10-08T04:14:23;16.02;;;8.93;;
61336;SDS011;47212;41.326;2.104;2023-10-08T04:19:26;10.30;;;8.70;;
61336;SDS011;47212;41.326;2.104;2023-10-08T04:26:19;11.65;;;8.80;;
61336;SDS011;47212;41.326;2.104;2023-10-08T04:38:43;10.75;;;7.80;;
61336;SDS011;47212;41.326;2.104;2023-10-08T04:43:50;9.98;;;7.85;;
61336;SDS011;47212;41.326;2.104;2023-10-08T04:48:52;12.27;;;9.13;;
61336;SDS011;47212;41.326;2.104;2023-10-08T04:53:56;10.15;;;8.77;;
61336;SDS011;47212;41.326;2.104;2023-10-08T04:59:00;10.95;;;8.85;;
61336;SDS011;47212;41.326;2.104;2023-10-08T05:04:02;12.65;;;8.57;;
61336;SDS011;47212;41.326;2.104;2023-10-08T05:09:11;11.57;;;8.68;;
61336;SDS011;47212;41.326;2.104;2023-10-08T05:14:15;12.10;;;8.30;;
61336;SDS011;47212;41.326;2.104;2023-10-08T05:19:29;11.68;;;8.65;;
61336;SDS011;47212;41.326;2.104;2023-10-08T05:24:58;12.13;;;8.20;;
61336;SDS011;47212;41.326;2.104;2023-10-08T05:30:11;12.50;;;8.13;;
61336;SDS011;47212;41.326;2.104;2023-10-08T05:35:18;10.20;;;8.40;;
61336;SDS011;47212;41.326;2.104;2023-10-08T05:40:57;11.90;;;8.98;;
61336;SDS011;47212;41.326;2.104;2023-10-08T05:46:00;11.68;;;8.73;;
61336;SDS011;47212;41.326;2.104;2023-10-08T05:51:21;12.15;;;8.68;;
61336;SDS011;47212;41.326;2.104;2023-10-08T05:56:36;13.32;;;9.18;;
61336;SDS011;47212;41.326;2.104;2023-10-08T06:01:57;13.32;;;9.20;;
61336;SDS011;47212;41.326;2.104;2023-10-08T06:07:08;9.50;;;6.80;;
61336;SDS011;47212;41.326;2.104;2023-10-08T06:12:24;13.60;;;7.97;;
61336;SDS011;47212;41.326;2.104;2023-10-08T06:17:33;12.23;;;8.43;;
61336;SDS011;47212;41.326;2.104;2023-10-08T06:22:59;14.55;;;9.30;;
61336;SDS011;47212;41.326;2.104;2023-10-08T06:28:07;11.57;;;7.82;;
61336;SDS011;47212;41.326;2.104;2023-10-08T06:33:11;12.90;;;9.27;;
61336;SDS011;47212;41.326;2.104;2023-10-08T06:38:13;13.63;;;9.40;;
61336;SDS011;47212;41.326;2.104;2023-10-08T06:43:21;13.40;;;8.95;;
61336;SDS011;47212;41.326;2.104;2023-10-08T06:48:25;12.52;;;9.85;;
61336;SDS011;47212;41.326;2.104;2023-10-08T06:53:31;13.45;;;10.50;;
61336;SDS011;47212;41.326;2.104;2023-10-08T06:58:33;13.98;;;9.88;;
61336;SDS011;47212;41.326;2.104;2023-10-08T07:03:36;18.25;;;10.70;;
61336;SDS011;47212;41.326;2.104;2023-10-08T07:08:40;12.15;;;9.15;;
61336;SDS011;47212;41.326;2.104;2023-10-08T07:13:44;11.20;;;9.15;;
61336;SDS011;47212;41.326;2.104;2023-10-08T07:18:47;15.90;;;10.82;;
61336;SDS011;47212;41.326;2.104;2023-10-08T07:23:56;12.05;;;8.50;;
61336;SDS011;47212;41.326;2.104;2023-10-08T07:29:00;11.70;;;9.15;;
61336;SDS011;47212;41.326;2.104;2023-10-08T07:34:02;18.00;;;10.18;;
61336;SDS011;47212;41.326;2.104;2023-10-08T07:39:18;12.88;;;9.93;;
61336;SDS011;47212;41.326;2.104;2023-10-08T07:44:27;9.25;;;7.50;;
61336;SDS011;47212;41.326;2.104;2023-10-08T07:49:37;9.23;;;8.32;;
61336;SDS011;47212;41.326;2.104;2023-10-08T07:54:41;11.60;;;9.25;;
61336;SDS011;47212;41.326;2.104;2023-10-08T07:59:43;14.52;;;11.32;;
61336;SDS011;47212;41.326;2.104;2023-10-08T08:04:52;14.82;;;10.23;;
61336;SDS011;47212;41.326;2.104;2023-10-08T08:09:58;13.98;;;11.45;;
61336;SDS011;47212;41.326;2.104;2023-10-08T08:15:01;12.73;;;10.30;;
61336;SDS011;47212;41.326;2.104;2023-10-08T08:20:17;13.80;;;9.93;;
61336;SDS011;47212;41.326;2.104;2023-10-08T08:25:21;13.27;;;11.07;;
61336;SDS011;47212;41.326;2.104;2023-10-08T08:30:36;15.77;;;12.85;;
61336;SDS011;47212;41.326;2.104;2023-10-08T08:35:41;8.93;;;8.02;;
61336;SDS011;47212;41.326;2.104;2023-10-08T08:40:43;18.60;;;12.15;;
61336;SDS011;47212;41.326;2.104;2023-10-08T08:45:45;18.15;;;12.68;;
61336;SDS011;47212;41.326;2.104;2023-10-08T08:50:54;15.95;;;12.52;;
61336;SDS011;47212;41.326;2.104;2023-10-08T08:55:58;15.38;;;12.25;;
61336;SDS011;47212;41.326;2.104;2023-10-08T09:01:11;18.30;;;15.93;;
61336;SDS011;47212;41.326;2.104;2023-10-08T09:06:16;14.60;;;11.93;;
61336;SDS011;47212;41.326;2.104;2023-10-08T09:11:21;10.70;;;8.50;;
61336;SDS011;47212;41.326;2.104;2023-10-08T09:16:23;14.70;;;10.98;;
61336;SDS011;47212;41.326;2.104;2023-10-08T09:21:25;15.60;;;10.90;;
61336;SDS011;47212;41.326;2.104;2023-10-08T09:26:28;9.13;;;7.57;;
61336;SDS011;47212;41.326;2.104;2023-10-08T09:31:31;11.52;;;7.75;;
61336;SDS011;47212;41.326;2.104;2023-10-08T09:36:37;14.15;;;9.60;;
61336;SDS011;47212;41.326;2.104;2023-10-08T09:41:44;13.38;;;9.30;;
61336;SDS011;47212;41.326;2.104;2023-10-08T09:46:51;9.85;;;8.80;;
61336;SDS011;47212;41.326;2.104;2023-10-08T09:52:01;12.35;;;10.43;;
61336;SDS011;47212;41.326;2.104;2023-10-08T09:57:08;9.88;;;7.82;;
61336;SDS011;47212;41.326;2.104;2023-10-08T10:02:12;11.75;;;8.23;;
61336;SDS011;47212;41.326;2.104;2023-10-08T10:07:14;11.70;;;8.98;;
61336;SDS011;47212;41.326;2.104;2023-10-08T10:12:27;11.90;;;10.23;;
61336;SDS011;47212;41.326;2.104;2023-10-08T10:17:33;14.48;;;10.77;;
61336;SDS011;47212;41.326;2.104;2023-10-08T10:22:45;17.17;;;11.00;;
61336;SDS011;47212;41.326;2.104;2023-10-08T10:32:59;12.02;;;10.07;;
61336;SDS011;47212;41.326;2.104;2023-10-08T10:38:03;14.30;;;11.32;;
61336;SDS011;47212;41.326;2.104;2023-10-08T10:43:08;13.20;;;9.10;;
61336;SDS011;47212;41.326;2.104;2023-10-08T10:48:17;19.63;;;11.90;;
61336;SDS011;47212;41.326;2.104;2023-10-08T10:53:23;10.23;;;8.60;;
61336;SDS011;47212;41.326;2.104;2023-10-08T10:58:30;11.10;;;8.65;;
61336;SDS011;47212;41.326;2.104;2023-10-08T11:03:40;16.38;;;12.05;;
61336;SDS011;47212;41.326;2.104;2023-10-08T11:08:44;10.35;;;7.65;;
61336;SDS011;47212;41.326;2.104;2023-10-08T11:13:48;12.43;;;10.32;;
61336;SDS011;47212;41.326;2.104;2023-10-08T11:18:58;13.97;;;10.87;;
61336;SDS011;47212;41.326;2.104;2023-10-08T11:24:09;15.23;;;12.07;;
61336;SDS011;47212;41.326;2.104;2023-10-08T11:29:14;8.55;;;7.05;;
61336;SDS011;47212;41.326;2.104;2023-10-08T11:34:20;9.98;;;7.60;;
61336;SDS011;47212;41.326;2.104;2023-10-08T11:39:28;8.50;;;7.45;;
61336;SDS011;47212;41.326;2.104;2023-10-08T11:44:49;16.83;;;11.45;;
61336;SDS011;47212;41.326;2.104;2023-10-08T11:49:54;11.68;;;8.73;;
61336;SDS011;47212;41.326;2.104;2023-10-08T11:55:12;14.45;;;9.35;;
61336;SDS011;47212;41.326;2.104;2023-10-08T12:00:20;15.95;;;9.48;;
61336;SDS011;47212;41.326;2.104;2023-10-08T12:05:33;19.20;;;13.60;;
61336;SDS011;47212;41.326;2.104;2023-10-08T12:10:36;11.07;;;7.47;;
61336;SDS011;47212;41.326;2.104;2023-10-08T12:15:38;12.52;;;9.00;;
61336;SDS011;47212;41.326;2.104;2023-10-08T12:20:42;10.07;;;7.38;;
61336;SDS011;47212;41.326;2.104;2023-10-08T12:25:45;13.70;;;8.45;;
61336;SDS011;47212;41.326;2.104;2023-10-08T12:30:54;11.77;;;7.90;;
61336;SDS011;47212;41.326;2.104;2023-10-08T12:36:02;13.60;;;8.13;;
61336;SDS011;47212;41.326;2.104;2023-10-08T12:41:13;12.07;;;8.90;;
61336;SDS011;47212;41.326;2.104;2023-10-08T12:46:15;11.13;;;7.65;;
61336;SDS011;47212;41.326;2.104;2023-10-08T12:51:21;10.90;;;8.32;;
61336;SDS011;47212;41.326;2.104;2023-10-08T12:56:28;11.48;;;6.15;;
61336;SDS011;47212;41.326;2.104;2023-10-08T13:01:34;7.82;;;5.93;;
61336;SDS011;47212;41.326;2.104;2023-10-08T13:06:38;7.40;;;6.25;;
61336;SDS011;47212;41.326;2.104;2023-10-08T13:11:40;7.47;;;5.53;;
61336;SDS011;47212;41.326;2.104;2023-10-08T13:16:44;7.20;;;5.50;;
61336;SDS011;47212;41.326;2.104;2023-10-08T13:21:47;6.63;;;5.15;;
61336;SDS011;47212;41.326;2.104;2023-10-08T13:26:54;5.72;;;4.60;;
61336;SDS011;47212;41.326;2.104;2023-10-08T13:31:56;9.73;;;5.57;;
61336;SDS011;47212;41.326;2.104;2023-10-08T13:36:59;8.20;;;5.65;;
61336;SDS011;47212;41.326;2.104;2023-10-08T13:42:01;8.50;;;5.75;;
61336;SDS011;47212;41.326;2.104;2023-10-08T13:47:07;7.93;;;5.20;;
61336;SDS011;47212;41.326;2.104;2023-10-08T13:52:15;7.10;;;5.15;;
61336;SDS011;47212;41.326;2.104;2023-10-08T13:57:22;9.18;;;5.30;;
61336;SDS011;47212;41.326;2.104;2023-10-08T14:02:28;6.90;;;4.85;;
61336;SDS011;47212;41.326;2.104;2023-10-08T14:07:32;6.88;;;4.78;;
61336;SDS011;47212;41.326;2.104;2023-10-08T14:12:36;7.45;;;5.18;;
61336;SDS011;47212;41.326;2.104;2023-10-08T14:17:39;9.77;;;5.40;;
61336;SDS011;47212;41.326;2.104;2023-10-08T14:22:45;7.65;;;5.10;;
61336;SDS011;47212;41.326;2.104;2023-10-08T14:27:50;5.22;;;4.70;;
61336;SDS011;47212;41.326;2.104;2023-10-08T14:32:55;8.80;;;5.30;;
61336;SDS011;47212;41.326;2.104;2023-10-08T14:37:59;8.77;;;5.20;;
61336;SDS011;47212;41.326;2.104;2023-10-08T14:43:21;9.00;;;5.03;;
61336;SDS011;47212;41.326;2.104;2023-10-08T14:48:26;8.98;;;5.15;;
61336;SDS011;47212;41.326;2.104;2023-10-08T14:53:31;6.95;;;4.85;;
61336;SDS011;47212;41.326;2.104;2023-10-08T14:58:33;7.57;;;4.80;;
61336;SDS011;47212;41.326;2.104;2023-10-08T15:03:37;6.07;;;4.15;;
61336;SDS011;47212;41.326;2.104;2023-10-08T15:08:39;6.80;;;4.22;;
61336;SDS011;47212;41.326;2.104;2023-10-08T15:13:41;7.10;;;4.88;;
61336;SDS011;47212;41.326;2.104;2023-10-08T15:18:47;5.00;;;4.18;;
61336;SDS011;47212;41.326;2.104;2023-10-08T15:23:50;6.82;;;4.38;;
61336;SDS011;47212;41.326;2.104;2023-10-08T15:28:52;9.73;;;5.10;;
61336;SDS011;47212;41.326;2.104;2023-10-08T15:33:54;9.43;;;5.25;;
61336;SDS011;47212;41.326;2.104;2023-10-08T15:38:57;6.43;;;4.25;;
61336;SDS011;47212;41.326;2.104;2023-10-08T15:44:00;6.45;;;4.78;;
61336;SDS011;47212;41.326;2.104;2023-10-08T15:49:03;6.97;;;4.60;;
61336;SDS011;47212;41.326;2.104;2023-10-08T15:54:06;4.53;;;3.70;;
61336;SDS011;47212;41.326;2.104;2023-10-08T15:59:09;8.90;;;4.63;;
61336;SDS011;47212;41.326;2.104;2023-10-08T16:04:12;7.38;;;4.32;;
61336;SDS011;47212;41.326;2.104;2023-10-08T16:09:15;5.90;;;3.83;;
61336;SDS011;47212;41.326;2.104;2023-10-08T16:14:17;6.35;;;4.28;;
61336;SDS011;47212;41.326;2.104;2023-10-08T16:19:19;8.07;;;5.97;;
61336;SDS011;47212;41.326;2.104;2023-10-08T16:24:21;8.23;;;4.68;;
61336;SDS011;47212;41.326;2.104;2023-10-08T16:29:27;7.80;;;4.88;;
61336;SDS011;47212;41.326;2.104;2023-10-08T16:34:29;6.68;;;4.95;;
61336;SDS011;47212;41.326;2.104;2023-10-08T16:39:31;5.80;;;4.20;;
61336;SDS011;47212;41.326;2.104;2023-10-08T16:44:33;8.55;;;4.22;;
61336;SDS011;47212;41.326;2.104;2023-10-08T16:49:35;6.78;;;4.25;;
61336;SDS011;47212;41.326;2.104;2023-10-08T16:54:38;6.93;;;3.60;;
61336;SDS011;47212;41.326;2.104;2023-10-08T16:59:40;5.55;;;3.25;;
61336;SDS011;47212;41.326;2.104;2023-10-08T17:04:44;6.45;;;3.92;;
61336;SDS011;47212;41.326;2.104;2023-10-08T17:09:46;5.30;;;3.53;;
61336;SDS011;47212;41.326;2.104;2023-10-08T17:14:49;9.50;;;6.68;;
61336;SDS011;47212;41.326;2.104;2023-10-08T17:19:53;5.15;;;4.00;;
61336;SDS011;47212;41.326;2.104;2023-10-08T17:24:55;4.20;;;3.10;;
61336;SDS011;47212;41.326;2.104;2023-10-08T17:30:00;9.82;;;7.30;;
61336;SDS011;47212;41.326;2.104;2023-10-08T17:35:03;6.15;;;4.97;;
61336;SDS011;47212;41.326;2.104;2023-10-08T17:40:08;6.68;;;4.00;;
61336;SDS011;47212;41.326;2.104;2023-10-08T17:45:13;7.53;;;3.47;;
61336;SDS011;47212;41.326;2.104;2023-10-08T17:50:18;3.97;;;2.75;;
61336;SDS011;47212;41.326;2.104;2023-10-08T17:55:22;5.20;;;3.28;;
61336;SDS011;47212;41.326;2.104;2023-10-08T18:00:24;4.57;;;3.20;;
61336;SDS011;47212;41.326;2.104;2023-10-08T18:05:29;6.20;;;3.15;;
61336;SDS011;47212;41.326;2.104;2023-10-08T18:10:33;4.47;;;3.40;;
61336;SDS011;47212;41.326;2.104;2023-10-08T18:15:37;4.65;;;2.78;;
61336;SDS011;47212;41.326;2.104;2023-10-08T18:20:40;4.40;;;2.70;;
61336;SDS011;47212;41.326;2.104;2023-10-08T18:25:48;7.03;;;3.22;;
61336;SDS011;47212;41.326;2.104;2023-10-08T18:30:51;7.72;;;4.15;;
61336;SDS011;47212;41.326;2.104;2023-10-08T18:36:01;9.10;;;4.40;;
61336;SDS011;47212;41.326;2.104;2023-10-08T18:41:07;6.18;;;3.92;;
61336;SDS011;47212;41.326;2.104;2023-10-08T18:46:10;5.97;;;4.32;;
61336;SDS011;47212;41.326;2.104;2023-10-08T18:51:13;7.15;;;3.72;;
61336;SDS011;47212;41.326;2.104;2023-10-08T18:56:19;7.95;;;4.50;;
61336;SDS011;47212;41.326;2.104;2023-10-08T19:01:21;7.60;;;4.18;;
61336;SDS011;47212;41.326;2.104;2023-10-08T19:06:28;10.27;;;5.20;;
61336;SDS011;47212;41.326;2.104;2023-10-08T19:11:31;12.38;;;7.82;;
61336;SDS011;47212;41.326;2.104;2023-10-08T19:16:34;8.00;;;5.43;;
61336;SDS011;47212;41.326;2.104;2023-10-08T19:21:38;8.55;;;4.85;;
61336;SDS011;47212;41.326;2.104;2023-10-08T19:26:42;11.05;;;5.40;;
61336;SDS011;47212;41.326;2.104;2023-10-08T19:31:44;7.53;;;4.53;;
61336;SDS011;47212;41.326;2.104;2023-10-08T19:36:48;12.15;;;6.50;;
61336;SDS011;47212;41.326;2.104;2023-10-08T19:41:51;12.90;;;7.18;;
61336;SDS011;47212;41.326;2.104;2023-10-08T19:46:55;7.15;;;5.22;;
61336;SDS011;47212;41.326;2.104;2023-10-08T19:51:58;5.65;;;4.30;;
61336;SDS011;47212;41.326;2.104;2023-10-08T19:57:00;6.43;;;4.40;;
61336;SDS011;47212;41.326;2.104;2023-10-08T20:02:03;5.45;;;4.32;;
61336;SDS011;47212;41.326;2.104;2023-10-08T20:07:07;6.55;;;4.00;;
61336;SDS011;47212;41.326;2.104;2023-10-08T20:12:10;5.60;;;3.92;;
61336;SDS011;47212;41.326;2.104;2023-10-08T20:17:12;7.55;;;4.40;;
61336;SDS011;47212;41.326;2.104;2023-10-08T20:22:15;5.60;;;4.05;;
61336;SDS011;47212;41.326;2.104;2023-10-08T20:27:18;7.03;;;4.50;;
61336;SDS011;47212;41.326;2.104;2023-10-08T20:32:20;6.55;;;4.50;;
61336;SDS011;47212;41.326;2.104;2023-10-08T20:37:22;5.65;;;4.43;;
61336;SDS011;47212;41.326;2.104;2023-10-08T20:42:25;8.77;;;5.32;;
61336;SDS011;47212;41.326;2.104;2023-10-08T20:47:28;6.45;;;4.47;;
61336;SDS011;47212;41.326;2.104;2023-10-08T20:52:31;11.85;;;8.40;;
61336;SDS011;47212;41.326;2.104;2023-10-08T20:57:33;5.68;;;4.10;;
61336;SDS011;47212;41.326;2.104;2023-10-08T21:02:35;7.53;;;4.35;;
61336;SDS011;47212;41.326;2.104;2023-10-08T21:07:38;6.78;;;4.43;;
61336;SDS011;47212;41.326;2.104;2023-10-08T21:12:43;7.30;;;4.82;;
61336;SDS011;47212;41.326;2.104;2023-10-08T21:17:46;6.95;;;4.63;;
61336;SDS011;47212;41.326;2.104;2023-10-08T21:22:55;9.45;;;5.95;;
61336;SDS011;47212;41.326;2.104;2023-10-08T21:27:57;8.38;;;5.03;;
61336;SDS011;47212;41.326;2.104;2023-10-08T21:33:00;7.22;;;5.40;;
61336;SDS011;47212;41.326;2.104;2023-10-08T21:38:03;5.25;;;4.18;;
61336;SDS011;47212;41.326;2.104;2023-10-08T21:43:06;8.15;;;4.63;;
61336;SDS011;47212;41.326;2.104;2023-10-08T21:48:09;5.05;;;3.83;;
61336;SDS011;47212;41.326;2.104;2023-10-08T21:53:11;5.63;;;4.30;;
61336;SDS011;47212;41.326;2.104;2023-10-08T21:58:14;9.68;;;6.20;;
61336;SDS011;47212;41.326;2.104;2023-10-08T22:03:16;10.13;;;7.43;;
61336;SDS011;47212;41.326;2.104;2023-10-08T22:08:18;8.85;;;7.95;;
61336;SDS011;47212;41.326;2.104;2023-10-08T22:13:28;15.10;;;8.60;;
61336;SDS011;47212;41.326;2.104;2023-10-08T22:18:32;9.73;;;7.57;;
61336;SDS011;47212;41.326;2.104;2023-10-08T22:23:41;9.00;;;7.40;;
61336;SDS011;47212;41.326;2.104;2023-10-08T22:28:45;14.60;;;8.93;;
61336;SDS011;47212;41.326;2.104;2023-10-08T22:33:47;13.15;;;8.95;;
61336;SDS011;47212;41.326;2.104;2023-10-08T22:38:51;9.35;;;7.43;;
61336;SDS011;47212;41.326;2.104;2023-10-08T22:43:55;7.97;;;5.68;;
61336;SDS011;47212;41.326;2.104;2023-10-08T22:48:58;11.27;;;7.72;;
61336;SDS011;47212;41.326;2.104;2023-10-08T22:54:05;9.82;;;6.93;;
61336;SDS011;47212;41.326;2.104;2023-10-08T22:59:10;5.55;;;4.68;;
61336;SDS011;47212;41.326;2.104;2023-10-08T23:04:17;8.52;;;5.15;;
61336;SDS011;47212;41.326;2.104;2023-10-08T23:09:21;8.25;;;6.07;;
61336;SDS011;47212;41.326;2.104;2023-10-08T23:14:34;7.15;;;4.80;;
61336;SDS011;47212;41.326;2.104;2023-10-08T23:19:41;8.23;;;5.55;;
61336;SDS011;47212;41.326;2.104;2023-10-08T23:24:43;7.38;;;4.70;;
61336;SDS011;47212;41.326;2.104;2023-10-08T23:29:45;8.23;;;5.25;;
61336;SDS011;47212;41.326;2.104;2023-10-08T23:34:50;8.68;;;5.30;;
61336;SDS011;47212;41.326;2.104;2023-10-08T23:39:58;11.32;;;6.30;;
61336;SDS011;47212;41.326;2.104;2023-10-08T23:45:17;6.30;;;4.90;;
61336;SDS011;47212;41.326;2.104;2023-10-08T23:50:19;14.90;;;6.47;;
61336;SDS011;47212;41.326;2.104;2023-10-08T23:55:31;8.70;;;5.97;;
